sensor_id;sensor_type;location;lat;lon;timestamp;P1;durP1;ratioP1;P2;durP2;ratioP2
29728;SDS011;20055;51.498;11.960;2023-07-13T00:01:30;13.88;;;2.08;;
29728;SDS011;20055;51.498;11.960;2023-07-13T00:03:57;10.88;;;2.28;;
29728;SDS011;20055;51.498;11.960;2023-07-13T00:06:23;6.55;;;1.70;;
29728;SDS011;20055;51.498;11.960;2023-07-13T00:08:49;14.90;;;1.95;;
29728;SDS011;20055;51.498;11.960;2023-07-13T00:11:16;5.43;;;1.63;;
29728;SDS011;20055;51.498;11.960;2023-07-13T00:13:43;5.55;;;1.70;;
29728;SDS011;20055;51.498;11.960;2023-07-13T00:16:10;8.93;;;1.60;;
29728;SDS011;20055;51.498;11.960;2023-07-13T00:18:38;8.63;;;1.58;;
29728;SDS011;20055;51.498;11.960;2023-07-13T00:21:04;6.93;;;1.70;;
29728;SDS011;20055;51.498;11.960;2023-07-13T00:23:34;6.10;;;2.00;;
29728;SDS011;20055;51.498;11.960;2023-07-13T00:26:02;10.75;;;1.92;;
29728;SDS011;20055;51.498;11.960;2023-07-13T00:28:30;9.73;;;1.73;;
29728;SDS011;20055;51.498;11.960;2023-07-13T00:30:57;5.60;;;1.80;;
29728;SDS011;20055;51.498;11.960;2023-07-13T00:33:24;8.55;;;1.73;;
29728;SDS011;20055;51.498;11.960;2023-07-13T00:35:50;11.05;;;2.05;;
29728;SDS011;20055;51.498;11.960;2023-07-13T00:38:16;6.70;;;1.83;;
29728;SDS011;20055;51.498;11.960;2023-07-13T00:40:43;8.48;;;1.75;;
29728;SDS011;20055;51.498;11.960;2023-07-13T00:43:13;8.63;;;1.90;;
29728;SDS011;20055;51.498;11.960;2023-07-13T00:48:11;4.32;;;1.60;;
29728;SDS011;20055;51.498;11.960;2023-07-13T00:50:41;7.53;;;2.70;;
29728;SDS011;20055;51.498;11.960;2023-07-13T00:53:08;6.55;;;2.13;;
29728;SDS011;20055;51.498;11.960;2023-07-13T00:55:35;8.85;;;1.80;;
29728;SDS011;20055;51.498;11.960;2023-07-13T00:58:01;6.30;;;1.85;;
29728;SDS011;20055;51.498;11.960;2023-07-13T01:00:28;8.68;;;2.08;;
29728;SDS011;20055;51.498;11.960;2023-07-13T01:02:55;6.88;;;2.08;;
29728;SDS011;20055;51.498;11.960;2023-07-13T01:05:24;9.02;;;1.80;;
29728;SDS011;20055;51.498;11.960;2023-07-13T01:07:51;6.70;;;2.05;;
29728;SDS011;20055;51.498;11.960;2023-07-13T01:10:21;4.90;;;2.05;;
29728;SDS011;20055;51.498;11.960;2023-07-13T01:12:48;10.55;;;1.73;;
29728;SDS011;20055;51.498;11.960;2023-07-13T01:18:00;8.95;;;2.28;;
29728;SDS011;20055;51.498;11.960;2023-07-13T01:20:26;9.25;;;2.08;;
29728;SDS011;20055;51.498;11.960;2023-07-13T01:22:53;34.97;;;3.28;;
29728;SDS011;20055;51.498;11.960;2023-07-13T01:25:21;9.38;;;2.20;;
29728;SDS011;20055;51.498;11.960;2023-07-13T01:27:47;9.23;;;1.90;;
29728;SDS011;20055;51.498;11.960;2023-07-13T01:30:13;12.10;;;2.30;;
29728;SDS011;20055;51.498;11.960;2023-07-13T01:32:40;9.63;;;2.40;;
29728;SDS011;20055;51.498;11.960;2023-07-13T01:35:07;7.78;;;2.83;;
29728;SDS011;20055;51.498;11.960;2023-07-13T01:37:33;8.27;;;2.40;;
29728;SDS011;20055;51.498;11.960;2023-07-13T01:40:02;8.25;;;2.05;;
29728;SDS011;20055;51.498;11.960;2023-07-13T01:42:30;11.52;;;2.58;;
29728;SDS011;20055;51.498;11.960;2023-07-13T01:44:56;7.63;;;2.33;;
29728;SDS011;20055;51.498;11.960;2023-07-13T01:47:23;9.95;;;2.20;;
29728;SDS011;20055;51.498;11.960;2023-07-13T01:49:49;10.88;;;2.70;;
29728;SDS011;20055;51.498;11.960;2023-07-13T01:52:17;5.30;;;2.10;;
29728;SDS011;20055;51.498;11.960;2023-07-13T01:54:43;7.50;;;2.50;;
29728;SDS011;20055;51.498;11.960;2023-07-13T01:57:10;7.60;;;1.80;;
29728;SDS011;20055;51.498;11.960;2023-07-13T01:59:36;9.48;;;2.58;;
29728;SDS011;20055;51.498;11.960;2023-07-13T02:02:02;8.35;;;2.28;;
29728;SDS011;20055;51.498;11.960;2023-07-13T02:04:29;8.93;;;2.20;;
29728;SDS011;20055;51.498;11.960;2023-07-13T02:06:55;8.18;;;2.78;;
29728;SDS011;20055;51.498;11.960;2023-07-13T02:09:21;10.60;;;2.85;;
29728;SDS011;20055;51.498;11.960;2023-07-13T02:11:48;5.30;;;2.53;;
29728;SDS011;20055;51.498;11.960;2023-07-13T02:14:14;6.15;;;2.50;;
29728;SDS011;20055;51.498;11.960;2023-07-13T02:16:41;7.82;;;2.28;;
29728;SDS011;20055;51.498;11.960;2023-07-13T02:19:07;6.93;;;2.30;;
29728;SDS011;20055;51.498;11.960;2023-07-13T02:21:34;4.75;;;2.35;;
29728;SDS011;20055;51.498;11.960;2023-07-13T02:24:00;7.85;;;2.28;;
29728;SDS011;20055;51.498;11.960;2023-07-13T02:26:26;10.13;;;2.80;;
29728;SDS011;20055;51.498;11.960;2023-07-13T02:28:53;10.68;;;2.85;;
29728;SDS011;20055;51.498;11.960;2023-07-13T02:31:19;10.00;;;2.20;;
29728;SDS011;20055;51.498;11.960;2023-07-13T02:33:46;9.73;;;2.75;;
29728;SDS011;20055;51.498;11.960;2023-07-13T02:36:12;10.05;;;2.70;;
29728;SDS011;20055;51.498;11.960;2023-07-13T02:38:43;5.05;;;2.40;;
29728;SDS011;20055;51.498;11.960;2023-07-13T02:41:10;10.63;;;2.50;;
29728;SDS011;20055;51.498;11.960;2023-07-13T02:43:39;8.23;;;2.33;;
29728;SDS011;20055;51.498;11.960;2023-07-13T02:46:08;10.68;;;2.47;;
29728;SDS011;20055;51.498;11.960;2023-07-13T02:48:38;6.32;;;2.30;;
29728;SDS011;20055;51.498;11.960;2023-07-13T02:51:05;8.15;;;3.72;;
29728;SDS011;20055;51.498;11.960;2023-07-13T02:53:33;6.82;;;2.42;;
29728;SDS011;20055;51.498;11.960;2023-07-13T02:56:01;6.18;;;2.50;;
29728;SDS011;20055;51.498;11.960;2023-07-13T02:58:27;9.35;;;2.60;;
29728;SDS011;20055;51.498;11.960;2023-07-13T03:00:55;5.00;;;2.05;;
29728;SDS011;20055;51.498;11.960;2023-07-13T03:03:21;8.20;;;2.22;;
29728;SDS011;20055;51.498;11.960;2023-07-13T03:05:48;7.38;;;2.75;;
29728;SDS011;20055;51.498;11.960;2023-07-13T03:08:23;7.20;;;2.33;;
29728;SDS011;20055;51.498;11.960;2023-07-13T03:11:01;6.45;;;2.35;;
29728;SDS011;20055;51.498;11.960;2023-07-13T03:15:58;6.93;;;2.63;;
29728;SDS011;20055;51.498;11.960;2023-07-13T03:18:26;8.63;;;2.85;;
29728;SDS011;20055;51.498;11.960;2023-07-13T03:20:53;6.40;;;2.22;;
29728;SDS011;20055;51.498;11.960;2023-07-13T03:23:20;11.93;;;3.33;;
29728;SDS011;20055;51.498;11.960;2023-07-13T03:25:47;7.50;;;2.72;;
29728;SDS011;20055;51.498;11.960;2023-07-13T03:28:14;14.20;;;3.92;;
29728;SDS011;20055;51.498;11.960;2023-07-13T03:30:41;6.88;;;2.92;;
29728;SDS011;20055;51.498;11.960;2023-07-13T03:33:08;13.95;;;3.33;;
29728;SDS011;20055;51.498;11.960;2023-07-13T03:35:34;15.25;;;3.85;;
29728;SDS011;20055;51.498;11.960;2023-07-13T03:38:01;8.48;;;2.95;;
29728;SDS011;20055;51.498;11.960;2023-07-13T03:40:28;8.23;;;2.72;;
29728;SDS011;20055;51.498;11.960;2023-07-13T03:42:54;8.48;;;3.05;;
29728;SDS011;20055;51.498;11.960;2023-07-13T03:45:21;7.47;;;3.03;;
29728;SDS011;20055;51.498;11.960;2023-07-13T03:47:47;7.85;;;3.10;;
29728;SDS011;20055;51.498;11.960;2023-07-13T03:50:13;14.25;;;3.15;;
29728;SDS011;20055;51.498;11.960;2023-07-13T03:52:40;5.50;;;2.63;;
29728;SDS011;20055;51.498;11.960;2023-07-13T03:55:07;9.38;;;3.13;;
29728;SDS011;20055;51.498;11.960;2023-07-13T03:57:34;9.45;;;2.95;;
29728;SDS011;20055;51.498;11.960;2023-07-13T04:00:02;7.60;;;3.00;;
29728;SDS011;20055;51.498;11.960;2023-07-13T04:02:29;9.23;;;3.20;;
29728;SDS011;20055;51.498;11.960;2023-07-13T04:04:56;8.25;;;2.72;;
29728;SDS011;20055;51.498;11.960;2023-07-13T04:07:24;9.27;;;3.10;;
29728;SDS011;20055;51.498;11.960;2023-07-13T04:09:50;11.93;;;3.88;;
29728;SDS011;20055;51.498;11.960;2023-07-13T04:12:16;8.00;;;2.50;;
29728;SDS011;20055;51.498;11.960;2023-07-13T04:14:42;11.93;;;3.05;;
29728;SDS011;20055;51.498;11.960;2023-07-13T04:17:08;7.22;;;2.30;;
29728;SDS011;20055;51.498;11.960;2023-07-13T04:19:35;8.18;;;3.15;;
29728;SDS011;20055;51.498;11.960;2023-07-13T04:22:01;11.25;;;2.60;;
29728;SDS011;20055;51.498;11.960;2023-07-13T04:24:27;6.90;;;2.72;;
29728;SDS011;20055;51.498;11.960;2023-07-13T04:26:53;6.93;;;2.35;;
29728;SDS011;20055;51.498;11.960;2023-07-13T04:29:20;8.70;;;2.50;;
29728;SDS011;20055;51.498;11.960;2023-07-13T04:31:46;7.05;;;2.17;;
29728;SDS011;20055;51.498;11.960;2023-07-13T04:34:13;5.85;;;1.85;;
29728;SDS011;20055;51.498;11.960;2023-07-13T04:36:39;8.45;;;2.00;;
29728;SDS011;20055;51.498;11.960;2023-07-13T04:39:05;6.18;;;1.92;;
29728;SDS011;20055;51.498;11.960;2023-07-13T04:41:32;6.85;;;1.48;;
29728;SDS011;20055;51.498;11.960;2023-07-13T04:43:58;5.45;;;1.83;;
29728;SDS011;20055;51.498;11.960;2023-07-13T04:46:25;6.22;;;1.92;;
29728;SDS011;20055;51.498;11.960;2023-07-13T04:48:51;7.30;;;2.15;;
29728;SDS011;20055;51.498;11.960;2023-07-13T04:51:18;4.50;;;1.67;;
29728;SDS011;20055;51.498;11.960;2023-07-13T04:53:45;5.05;;;2.00;;
29728;SDS011;20055;51.498;11.960;2023-07-13T04:56:11;4.72;;;1.52;;
29728;SDS011;20055;51.498;11.960;2023-07-13T04:58:37;9.95;;;1.95;;
29728;SDS011;20055;51.498;11.960;2023-07-13T05:01:04;5.07;;;1.63;;
29728;SDS011;20055;51.498;11.960;2023-07-13T05:03:31;5.25;;;1.67;;
29728;SDS011;20055;51.498;11.960;2023-07-13T05:05:59;5.63;;;2.00;;
29728;SDS011;20055;51.498;11.960;2023-07-13T05:08:27;7.25;;;2.00;;
29728;SDS011;20055;51.498;11.960;2023-07-13T05:10:53;8.88;;;2.13;;
29728;SDS011;20055;51.498;11.960;2023-07-13T05:13:19;5.88;;;2.00;;
29728;SDS011;20055;51.498;11.960;2023-07-13T05:15:47;5.57;;;1.90;;
29728;SDS011;20055;51.498;11.960;2023-07-13T05:18:24;6.95;;;2.13;;
29728;SDS011;20055;51.498;11.960;2023-07-13T05:20:56;5.75;;;1.75;;
29728;SDS011;20055;51.498;11.960;2023-07-13T05:23:23;7.82;;;2.10;;
29728;SDS011;20055;51.498;11.960;2023-07-13T05:25:50;7.05;;;1.58;;
29728;SDS011;20055;51.498;11.960;2023-07-13T05:28:16;5.88;;;1.73;;
29728;SDS011;20055;51.498;11.960;2023-07-13T05:30:45;6.93;;;1.67;;
29728;SDS011;20055;51.498;11.960;2023-07-13T05:33:15;6.22;;;1.92;;
29728;SDS011;20055;51.498;11.960;2023-07-13T05:35:41;6.28;;;1.85;;
29728;SDS011;20055;51.498;11.960;2023-07-13T05:38:08;6.97;;;1.98;;
29728;SDS011;20055;51.498;11.960;2023-07-13T05:40:34;3.50;;;1.73;;
29728;SDS011;20055;51.498;11.960;2023-07-13T05:43:00;7.15;;;2.00;;
29728;SDS011;20055;51.498;11.960;2023-07-13T05:45:26;5.70;;;1.80;;
29728;SDS011;20055;51.498;11.960;2023-07-13T05:47:52;5.90;;;1.70;;
29728;SDS011;20055;51.498;11.960;2023-07-13T05:50:19;5.00;;;2.13;;
29728;SDS011;20055;51.498;11.960;2023-07-13T05:52:45;7.95;;;2.00;;
29728;SDS011;20055;51.498;11.960;2023-07-13T05:55:11;8.10;;;2.20;;
29728;SDS011;20055;51.498;11.960;2023-07-13T05:57:37;7.68;;;1.98;;
29728;SDS011;20055;51.498;11.960;2023-07-13T06:00:03;4.57;;;1.70;;
29728;SDS011;20055;51.498;11.960;2023-07-13T06:02:37;11.23;;;2.47;;
29728;SDS011;20055;51.498;11.960;2023-07-13T06:05:04;7.75;;;1.90;;
29728;SDS011;20055;51.498;11.960;2023-07-13T06:07:30;5.85;;;2.05;;
29728;SDS011;20055;51.498;11.960;2023-07-13T06:09:57;10.10;;;2.75;;
29728;SDS011;20055;51.498;11.960;2023-07-13T06:12:25;8.85;;;1.92;;
29728;SDS011;20055;51.498;11.960;2023-07-13T06:14:51;4.97;;;1.73;;
29728;SDS011;20055;51.498;11.960;2023-07-13T06:17:17;4.80;;;1.85;;
29728;SDS011;20055;51.498;11.960;2023-07-13T06:19:44;6.72;;;2.03;;
29728;SDS011;20055;51.498;11.960;2023-07-13T06:22:10;9.02;;;2.20;;
29728;SDS011;20055;51.498;11.960;2023-07-13T06:24:36;7.55;;;1.90;;
29728;SDS011;20055;51.498;11.960;2023-07-13T06:27:03;6.65;;;2.00;;
29728;SDS011;20055;51.498;11.960;2023-07-13T06:29:29;8.38;;;1.70;;
29728;SDS011;20055;51.498;11.960;2023-07-13T06:31:57;9.10;;;1.80;;
29728;SDS011;20055;51.498;11.960;2023-07-13T06:34:23;7.50;;;1.80;;
29728;SDS011;20055;51.498;11.960;2023-07-13T06:36:49;6.60;;;1.58;;
29728;SDS011;20055;51.498;11.960;2023-07-13T06:39:16;6.53;;;1.92;;
29728;SDS011;20055;51.498;11.960;2023-07-13T06:41:42;9.48;;;1.85;;
29728;SDS011;20055;51.498;11.960;2023-07-13T06:44:12;4.68;;;1.55;;
29728;SDS011;20055;51.498;11.960;2023-07-13T06:46:39;4.88;;;2.00;;
29728;SDS011;20055;51.498;11.960;2023-07-13T06:49:05;4.68;;;1.70;;
29728;SDS011;20055;51.498;11.960;2023-07-13T06:51:31;6.60;;;2.03;;
29728;SDS011;20055;51.498;11.960;2023-07-13T06:53:57;4.90;;;1.92;;
29728;SDS011;20055;51.498;11.960;2023-07-13T06:56:24;5.78;;;1.70;;
29728;SDS011;20055;51.498;11.960;2023-07-13T06:58:50;5.97;;;1.63;;
29728;SDS011;20055;51.498;11.960;2023-07-13T07:01:16;3.72;;;1.38;;
29728;SDS011;20055;51.498;11.960;2023-07-13T07:03:42;6.25;;;1.73;;
29728;SDS011;20055;51.498;11.960;2023-07-13T07:06:13;4.40;;;1.50;;
29728;SDS011;20055;51.498;11.960;2023-07-13T07:08:42;7.80;;;2.20;;
29728;SDS011;20055;51.498;11.960;2023-07-13T07:11:11;10.57;;;2.03;;
29728;SDS011;20055;51.498;11.960;2023-07-13T07:13:38;5.93;;;1.65;;
29728;SDS011;20055;51.498;11.960;2023-07-13T07:16:04;7.93;;;1.83;;
29728;SDS011;20055;51.498;11.960;2023-07-13T07:18:31;7.68;;;1.33;;
29728;SDS011;20055;51.498;11.960;2023-07-13T07:20:58;6.82;;;1.50;;
29728;SDS011;20055;51.498;11.960;2023-07-13T07:23:24;8.82;;;1.42;;
29728;SDS011;20055;51.498;11.960;2023-07-13T07:25:50;8.07;;;1.60;;
29728;SDS011;20055;51.498;11.960;2023-07-13T07:28:17;7.32;;;2.28;;
29728;SDS011;20055;51.498;11.960;2023-07-13T07:30:45;4.95;;;1.40;;
29728;SDS011;20055;51.498;11.960;2023-07-13T07:33:11;5.95;;;1.52;;
29728;SDS011;20055;51.498;11.960;2023-07-13T07:35:38;8.98;;;1.80;;
29728;SDS011;20055;51.498;11.960;2023-07-13T07:38:05;8.93;;;2.05;;
29728;SDS011;20055;51.498;11.960;2023-07-13T07:40:32;11.27;;;1.58;;
29728;SDS011;20055;51.498;11.960;2023-07-13T07:43:02;8.20;;;1.83;;
29728;SDS011;20055;51.498;11.960;2023-07-13T07:45:29;8.10;;;1.55;;
29728;SDS011;20055;51.498;11.960;2023-07-13T07:47:55;10.55;;;1.55;;
29728;SDS011;20055;51.498;11.960;2023-07-13T07:50:28;21.80;;;1.77;;
29728;SDS011;20055;51.498;11.960;2023-07-13T07:55:24;9.50;;;1.55;;
29728;SDS011;20055;51.498;11.960;2023-07-13T07:57:52;9.02;;;2.15;;
29728;SDS011;20055;51.498;11.960;2023-07-13T08:00:18;8.43;;;1.50;;
29728;SDS011;20055;51.498;11.960;2023-07-13T08:02:47;13.15;;;1.58;;
29728;SDS011;20055;51.498;11.960;2023-07-13T08:05:14;11.13;;;1.83;;
29728;SDS011;20055;51.498;11.960;2023-07-13T08:07:40;9.52;;;1.75;;
29728;SDS011;20055;51.498;11.960;2023-07-13T08:10:07;9.80;;;1.75;;
29728;SDS011;20055;51.498;11.960;2023-07-13T08:12:34;9.77;;;2.15;;
29728;SDS011;20055;51.498;11.960;2023-07-13T08:15:01;14.15;;;2.35;;
29728;SDS011;20055;51.498;11.960;2023-07-13T08:17:30;8.75;;;1.77;;
29728;SDS011;20055;51.498;11.960;2023-07-13T08:19:56;7.88;;;1.80;;
29728;SDS011;20055;51.498;11.960;2023-07-13T08:22:23;11.30;;;1.73;;
29728;SDS011;20055;51.498;11.960;2023-07-13T08:24:49;7.10;;;1.83;;
29728;SDS011;20055;51.498;11.960;2023-07-13T08:27:24;15.82;;;2.58;;
29728;SDS011;20055;51.498;11.960;2023-07-13T08:29:52;19.42;;;2.88;;
29728;SDS011;20055;51.498;11.960;2023-07-13T08:32:19;13.80;;;2.08;;
29728;SDS011;20055;51.498;11.960;2023-07-13T08:34:47;6.72;;;1.55;;
29728;SDS011;20055;51.498;11.960;2023-07-13T08:37:13;20.95;;;2.72;;
29728;SDS011;20055;51.498;11.960;2023-07-13T08:39:40;13.82;;;2.22;;
29728;SDS011;20055;51.498;11.960;2023-07-13T08:42:11;12.10;;;2.65;;
29728;SDS011;20055;51.498;11.960;2023-07-13T08:45:03;6.95;;;1.88;;
29728;SDS011;20055;51.498;11.960;2023-07-13T08:47:48;9.13;;;1.92;;
29728;SDS011;20055;51.498;11.960;2023-07-13T08:50:22;7.15;;;1.58;;
29728;SDS011;20055;51.498;11.960;2023-07-13T08:52:54;8.40;;;2.65;;
29728;SDS011;20055;51.498;11.960;2023-07-13T08:55:24;11.48;;;1.75;;
29728;SDS011;20055;51.498;11.960;2023-07-13T09:03:26;9.13;;;1.92;;
29728;SDS011;20055;51.498;11.960;2023-07-13T09:06:01;6.13;;;1.83;;
29728;SDS011;20055;51.498;11.960;2023-07-13T09:08:31;5.32;;;1.60;;
29728;SDS011;20055;51.498;11.960;2023-07-13T09:11:23;10.48;;;1.77;;
29728;SDS011;20055;51.498;11.960;2023-07-13T09:17:04;15.68;;;2.65;;
29728;SDS011;20055;51.498;11.960;2023-07-13T09:19:37;9.90;;;1.70;;
29728;SDS011;20055;51.498;11.960;2023-07-13T09:22:05;8.65;;;1.45;;
29728;SDS011;20055;51.498;11.960;2023-07-13T09:24:47;11.77;;;1.60;;
29728;SDS011;20055;51.498;11.960;2023-07-13T09:27:36;7.88;;;1.77;;
29728;SDS011;20055;51.498;11.960;2023-07-13T09:32:38;4.53;;;1.25;;
29728;SDS011;20055;51.498;11.960;2023-07-13T09:35:12;6.25;;;1.75;;
29728;SDS011;20055;51.498;11.960;2023-07-13T09:37:42;7.22;;;1.42;;
29728;SDS011;20055;51.498;11.960;2023-07-13T09:40:11;9.70;;;1.80;;
29728;SDS011;20055;51.498;11.960;2023-07-13T09:42:52;7.18;;;1.63;;
29728;SDS011;20055;51.498;11.960;2023-07-13T09:45:28;10.07;;;1.73;;
29728;SDS011;20055;51.498;11.960;2023-07-13T09:48:03;3.70;;;1.23;;
29728;SDS011;20055;51.498;11.960;2023-07-13T09:50:31;8.02;;;1.58;;
29728;SDS011;20055;51.498;11.960;2023-07-13T09:52:58;10.85;;;1.58;;
29728;SDS011;20055;51.498;11.960;2023-07-13T09:57:53;10.25;;;2.45;;
29728;SDS011;20055;51.498;11.960;2023-07-13T10:00:21;7.05;;;1.77;;
29728;SDS011;20055;51.498;11.960;2023-07-13T10:02:59;6.75;;;1.38;;
29728;SDS011;20055;51.498;11.960;2023-07-13T10:05:36;6.50;;;1.52;;
29728;SDS011;20055;51.498;11.960;2023-07-13T10:10:57;4.43;;;1.20;;
29728;SDS011;20055;51.498;11.960;2023-07-13T10:13:37;5.10;;;1.30;;
29728;SDS011;20055;51.498;11.960;2023-07-13T10:16:08;7.05;;;1.70;;
29728;SDS011;20055;51.498;11.960;2023-07-13T10:18:57;8.00;;;1.70;;
29728;SDS011;20055;51.498;11.960;2023-07-13T10:21:26;4.25;;;1.55;;
29728;SDS011;20055;51.498;11.960;2023-07-13T10:24:17;5.97;;;1.38;;
29728;SDS011;20055;51.498;11.960;2023-07-13T10:26:49;5.65;;;1.35;;
29728;SDS011;20055;51.498;11.960;2023-07-13T10:29:38;13.48;;;1.90;;
29728;SDS011;20055;51.498;11.960;2023-07-13T10:32:12;13.82;;;1.55;;
29728;SDS011;20055;51.498;11.960;2023-07-13T10:34:40;18.08;;;2.00;;
29728;SDS011;20055;51.498;11.960;2023-07-13T10:37:15;10.82;;;1.60;;
29728;SDS011;20055;51.498;11.960;2023-07-13T10:39:48;12.63;;;1.67;;
29728;SDS011;20055;51.498;11.960;2023-07-13T10:42:25;8.50;;;1.73;;
29728;SDS011;20055;51.498;11.960;2023-07-13T10:44:55;11.13;;;2.22;;
29728;SDS011;20055;51.498;11.960;2023-07-13T10:47:22;13.10;;;2.10;;
29728;SDS011;20055;51.498;11.960;2023-07-13T10:49:50;7.80;;;1.20;;
29728;SDS011;20055;51.498;11.960;2023-07-13T10:58:03;3.78;;;1.30;;
29728;SDS011;20055;51.498;11.960;2023-07-13T11:01:21;8.25;;;2.20;;
29728;SDS011;20055;51.498;11.960;2023-07-13T11:03:54;6.57;;;1.23;;
29728;SDS011;20055;51.498;11.960;2023-07-13T11:09:03;7.40;;;1.40;;
29728;SDS011;20055;51.498;11.960;2023-07-13T11:12:00;8.25;;;1.50;;
29728;SDS011;20055;51.498;11.960;2023-07-13T11:14:37;6.72;;;1.15;;
29728;SDS011;20055;51.498;11.960;2023-07-13T11:22:44;2.95;;;0.95;;
29728;SDS011;20055;51.498;11.960;2023-07-13T11:25:27;4.57;;;1.17;;
29728;SDS011;20055;51.498;11.960;2023-07-13T11:30:37;3.75;;;0.95;;
29728;SDS011;20055;51.498;11.960;2023-07-13T11:33:20;3.65;;;0.90;;
29728;SDS011;20055;51.498;11.960;2023-07-13T11:35:53;3.72;;;0.95;;
29728;SDS011;20055;51.498;11.960;2023-07-13T11:41:25;3.20;;;1.00;;
29728;SDS011;20055;51.498;11.960;2023-07-13T11:43:55;4.18;;;1.10;;
29728;SDS011;20055;51.498;11.960;2023-07-13T11:46:30;3.55;;;1.10;;
29728;SDS011;20055;51.498;11.960;2023-07-13T11:48:56;5.15;;;0.90;;
29728;SDS011;20055;51.498;11.960;2023-07-13T11:51:23;3.60;;;0.93;;
29728;SDS011;20055;51.498;11.960;2023-07-13T11:53:57;3.97;;;0.80;;
29728;SDS011;20055;51.498;11.960;2023-07-13T11:56:28;6.70;;;1.00;;
29728;SDS011;20055;51.498;11.960;2023-07-13T11:58:56;5.70;;;0.80;;
29728;SDS011;20055;51.498;11.960;2023-07-13T12:01:24;2.83;;;0.95;;
29728;SDS011;20055;51.498;11.960;2023-07-13T12:04:01;4.60;;;1.13;;
29728;SDS011;20055;51.498;11.960;2023-07-13T12:06:33;2.53;;;0.85;;
29728;SDS011;20055;51.498;11.960;2023-07-13T12:09:10;2.75;;;0.80;;
29728;SDS011;20055;51.498;11.960;2023-07-13T12:11:41;5.50;;;1.08;;
29728;SDS011;20055;51.498;11.960;2023-07-13T12:14:15;4.53;;;1.15;;
29728;SDS011;20055;51.498;11.960;2023-07-13T12:16:42;7.80;;;1.10;;
29728;SDS011;20055;51.498;11.960;2023-07-13T12:19:19;5.00;;;1.55;;
29728;SDS011;20055;51.498;11.960;2023-07-13T12:21:48;8.63;;;1.27;;
29728;SDS011;20055;51.498;11.960;2023-07-13T12:24:17;8.65;;;1.48;;
29728;SDS011;20055;51.498;11.960;2023-07-13T12:26:48;8.45;;;1.17;;
29728;SDS011;20055;51.498;11.960;2023-07-13T12:29:17;6.18;;;1.00;;
29728;SDS011;20055;51.498;11.960;2023-07-13T12:31:45;3.72;;;0.95;;
29728;SDS011;20055;51.498;11.960;2023-07-13T12:34:14;3.33;;;1.33;;
29728;SDS011;20055;51.498;11.960;2023-07-13T12:36:49;5.70;;;1.17;;
29728;SDS011;20055;51.498;11.960;2023-07-13T12:39:20;5.43;;;1.88;;
29728;SDS011;20055;51.498;11.960;2023-07-13T12:41:50;8.40;;;1.25;;
29728;SDS011;20055;51.498;11.960;2023-07-13T12:44:18;10.05;;;1.27;;
29728;SDS011;20055;51.498;11.960;2023-07-13T12:47:05;5.00;;;1.23;;
29728;SDS011;20055;51.498;11.960;2023-07-13T12:49:41;6.85;;;1.30;;
29728;SDS011;20055;51.498;11.960;2023-07-13T12:52:15;4.00;;;0.98;;
29728;SDS011;20055;51.498;11.960;2023-07-13T12:57:40;3.85;;;1.05;;
29728;SDS011;20055;51.498;11.960;2023-07-13T13:02:48;5.05;;;0.98;;
29728;SDS011;20055;51.498;11.960;2023-07-13T13:05:16;4.50;;;1.13;;
29728;SDS011;20055;51.498;11.960;2023-07-13T13:07:43;2.92;;;1.13;;
29728;SDS011;20055;51.498;11.960;2023-07-13T13:10:12;10.18;;;1.08;;
29728;SDS011;20055;51.498;11.960;2023-07-13T13:12:39;4.38;;;1.10;;
29728;SDS011;20055;51.498;11.960;2023-07-13T13:15:08;3.55;;;1.00;;
29728;SDS011;20055;51.498;11.960;2023-07-13T13:17:37;3.63;;;1.08;;
29728;SDS011;20055;51.498;11.960;2023-07-13T13:20:14;2.13;;;1.25;;
29728;SDS011;20055;51.498;11.960;2023-07-13T13:22:45;3.50;;;1.17;;
29728;SDS011;20055;51.498;11.960;2023-07-13T13:25:12;3.15;;;1.10;;
29728;SDS011;20055;51.498;11.960;2023-07-13T13:27:43;2.58;;;0.93;;
29728;SDS011;20055;51.498;11.960;2023-07-13T13:32:39;5.53;;;1.33;;
29728;SDS011;20055;51.498;11.960;2023-07-13T13:35:07;2.42;;;1.10;;
29728;SDS011;20055;51.498;11.960;2023-07-13T13:37:39;6.70;;;1.27;;
29728;SDS011;20055;51.498;11.960;2023-07-13T13:40:17;6.88;;;1.33;;
29728;SDS011;20055;51.498;11.960;2023-07-13T13:42:48;5.60;;;1.30;;
29728;SDS011;20055;51.498;11.960;2023-07-13T13:45:15;2.83;;;1.20;;
29728;SDS011;20055;51.498;11.960;2023-07-13T13:47:43;3.10;;;1.30;;
29728;SDS011;20055;51.498;11.960;2023-07-13T13:52:45;1.88;;;1.05;;
29728;SDS011;20055;51.498;11.960;2023-07-13T13:55:12;4.15;;;1.38;;
29728;SDS011;20055;51.498;11.960;2023-07-13T13:57:48;3.17;;;1.10;;
29728;SDS011;20055;51.498;11.960;2023-07-13T14:00:15;4.55;;;1.30;;
29728;SDS011;20055;51.498;11.960;2023-07-13T14:02:46;4.97;;;1.20;;
29728;SDS011;20055;51.498;11.960;2023-07-13T14:05:15;5.10;;;1.25;;
29728;SDS011;20055;51.498;11.960;2023-07-13T14:07:47;7.15;;;1.45;;
29728;SDS011;20055;51.498;11.960;2023-07-13T14:10:16;4.88;;;1.42;;
29728;SDS011;20055;51.498;11.960;2023-07-13T14:12:44;4.35;;;1.30;;
29728;SDS011;20055;51.498;11.960;2023-07-13T14:15:31;5.93;;;1.27;;
29728;SDS011;20055;51.498;11.960;2023-07-13T14:17:57;5.28;;;1.50;;
29728;SDS011;20055;51.498;11.960;2023-07-13T14:20:24;2.50;;;1.40;;
29728;SDS011;20055;51.498;11.960;2023-07-13T14:22:51;2.92;;;1.30;;
29728;SDS011;20055;51.498;11.960;2023-07-13T14:25:18;3.38;;;1.20;;
29728;SDS011;20055;51.498;11.960;2023-07-13T14:27:46;4.90;;;1.42;;
29728;SDS011;20055;51.498;11.960;2023-07-13T14:30:19;3.38;;;1.20;;
29728;SDS011;20055;51.498;11.960;2023-07-13T14:32:46;2.83;;;1.25;;
29728;SDS011;20055;51.498;11.960;2023-07-13T14:35:15;6.00;;;1.25;;
29728;SDS011;20055;51.498;11.960;2023-07-13T14:37:42;4.45;;;1.05;;
29728;SDS011;20055;51.498;11.960;2023-07-13T14:40:21;4.47;;;1.15;;
29728;SDS011;20055;51.498;11.960;2023-07-13T14:42:52;6.93;;;1.45;;
29728;SDS011;20055;51.498;11.960;2023-07-13T14:45:19;4.85;;;1.40;;
29728;SDS011;20055;51.498;11.960;2023-07-13T14:47:46;5.20;;;2.38;;
29728;SDS011;20055;51.498;11.960;2023-07-13T14:50:14;9.63;;;1.33;;
29728;SDS011;20055;51.498;11.960;2023-07-13T14:52:43;5.97;;;1.23;;
29728;SDS011;20055;51.498;11.960;2023-07-13T14:55:11;3.40;;;1.10;;
29728;SDS011;20055;51.498;11.960;2023-07-13T14:57:39;4.40;;;1.42;;
29728;SDS011;20055;51.498;11.960;2023-07-13T15:02:43;5.35;;;1.50;;
29728;SDS011;20055;51.498;11.960;2023-07-13T15:05:18;5.22;;;1.23;;
29728;SDS011;20055;51.498;11.960;2023-07-13T15:07:53;7.97;;;1.52;;
29728;SDS011;20055;51.498;11.960;2023-07-13T15:10:23;6.47;;;1.33;;
29728;SDS011;20055;51.498;11.960;2023-07-13T15:12:51;2.42;;;1.10;;
29728;SDS011;20055;51.498;11.960;2023-07-13T15:15:18;5.72;;;1.10;;
29728;SDS011;20055;51.498;11.960;2023-07-13T15:17:45;5.93;;;1.33;;
29728;SDS011;20055;51.498;11.960;2023-07-13T15:20:23;8.27;;;1.50;;
29728;SDS011;20055;51.498;11.960;2023-07-13T15:22:55;4.18;;;0.90;;
29728;SDS011;20055;51.498;11.960;2023-07-13T15:25:23;5.45;;;1.45;;
29728;SDS011;20055;51.498;11.960;2023-07-13T15:27:54;5.10;;;1.30;;
29728;SDS011;20055;51.498;11.960;2023-07-13T15:30:21;3.20;;;1.00;;
29728;SDS011;20055;51.498;11.960;2023-07-13T15:32:49;8.00;;;1.38;;
29728;SDS011;20055;51.498;11.960;2023-07-13T15:35:17;4.82;;;1.70;;
29728;SDS011;20055;51.498;11.960;2023-07-13T15:37:45;7.15;;;1.50;;
29728;SDS011;20055;51.498;11.960;2023-07-13T15:40:13;5.70;;;1.20;;
29728;SDS011;20055;51.498;11.960;2023-07-13T15:42:43;3.90;;;1.15;;
29728;SDS011;20055;51.498;11.960;2023-07-13T15:45:14;4.38;;;1.38;;